Time;durP1;ratioP1;P1;durP2;ratioP2;P2;SDS_P1;SDS_P2;PMS_P1;PMS_P2;Temp;Humidity;BMP_temperature;BMP_pressure;BME280_temperature;BME280_humidity;BME280_pressure;Samples;Min_cycle;Max_cycle;Signal;HPM_P1;HPM_P2
2023/05/25 00:00:04;;;;;;;9.90;6.50;;;;;;;12.69;100.00;101266.30;5040974;57;1143294;-80
2023/05/25 00:05:11;;;;;;;15.48;8.08;;;;;;;12.71;100.00;101270.16;5041117;57;1141114;-80
2023/05/25 00:10:17;;;;;;;9.98;6.65;;;;;;;12.67;100.00;101262.94;5044356;57;1143158;-80
2023/05/25 00:15:22;;;;;;;14.00;6.55;;;;;;;12.61;100.00;101264.70;5045161;57;1141065;-80
2023/05/25 00:20:28;;;;;;;20.15;7.42;;;;;;;12.62;100.00;101273.03;5142021;56;1142966;-80
2023/05/25 00:25:33;;;;;;;17.77;7.00;;;;;;;12.62;100.00;101273.03;5089538;56;1142908;-81
2023/05/25 00:30:39;;;;;;;22.13;7.57;;;;;;;12.63;100.00;101269.42;4993011;57;1142957;-80
2023/05/25 00:35:45;;;;;;;19.47;7.37;;;;;;;12.65;100.00;101273.66;4986318;56;1143041;-81
2023/05/25 00:40:57;;;;;;;15.40;6.90;;;;;;;12.68;100.00;101272.55;5041648;56;1142940;-80
2023/05/25 00:46:04;;;;;;;13.97;6.73;;;;;;;12.67;100.00;101270.41;5045025;56;1142928;-80
2023/05/25 00:51:11;;;;;;;14.23;6.55;;;;;;;12.71;100.00;101264.37;5125977;56;1143091;-81
2023/05/25 00:56:30;;;;;;;18.37;6.50;;;;;;;12.69;100.00;101267.62;5146163;56;1142925;-81
2023/05/25 01:01:43;;;;;;;12.60;6.60;;;;;;;12.69;100.00;101266.30;5125736;56;1143254;-81
2023/05/25 01:06:49;;;;;;;;;;;;;;;12.65;100.00;101277.64;5123852;56;1142967;-81
2023/05/25 01:11:59;;;;;;;13.33;7.03;;;;;;;12.61;100.00;101281.47;5067148;57;978216;-81
2023/05/25 01:17:05;;;;;;;13.83;6.83;;;;;;;12.58;100.00;101284.83;5135404;56;1141000;-81
2023/05/25 01:22:28;;;;;;;21.02;7.60;;;;;;;12.56;100.00;101285.41;5106532;56;1142888;-81
2023/05/25 01:27:50;;;;;;;17.27;7.87;;;;;;;12.56;100.00;101296.88;5112884;56;1142942;-81
2023/05/25 01:32:57;;;;;;;21.17;8.17;;;;;;;12.53;100.00;101293.11;4974956;57;1143029;-81
2023/05/25 01:38:02;;;;;;;15.67;6.50;;;;;;;12.55;100.00;101289.88;4975392;58;1143057;-82
2023/05/25 01:43:08;;;;;;;17.33;7.23;;;;;;;12.57;100.00;101289.28;4948620;58;1143601;-81
2023/05/25 01:49:03;;;;;;;14.30;6.57;;;;;;;12.56;100.00;101284.09;4988454;56;1142947;-81
2023/05/25 01:54:19;;;;;;;11.37;5.90;;;;;;;12.54;100.00;101279.37;5031893;56;1143009;-81
2023/05/25 01:59:26;;;;;;;14.25;7.05;;;;;;;12.49;100.00;101278.88;5050871;56;1142911;-81
2023/05/25 02:04:33;;;;;;;15.50;6.87;;;;;;;12.45;100.00;101282.23;5030758;56;1142859;-81
2023/05/25 02:09:38;;;;;;;22.53;7.07;;;;;;;12.46;100.00;101283.08;5030349;56;1142942;-81
2023/05/25 02:14:49;;;;;;;15.83;6.23;;;;;;;12.43;100.00;101282.82;5050612;56;1143095;-81
2023/05/25 02:19:53;;;;;;;12.37;6.65;;;;;;;12.40;100.00;101283.52;5029884;56;1143045;-81
2023/05/25 02:24:58;;;;;;;16.53;6.63;;;;;;;12.35;100.00;101279.05;5030588;56;1142875;-81
2023/05/25 02:30:05;;;;;;;15.83;6.92;;;;;;;12.30;100.00;101283.34;5021292;56;1143248;-81
2023/05/25 02:35:11;;;;;;;15.03;7.10;;;;;;;12.24;100.00;101281.98;5042959;56;1142884;-81
2023/05/25 02:40:18;;;;;;;19.03;6.33;;;;;;;12.20;100.00;101287.63;5022859;56;1143003;-81
2023/05/25 02:45:24;;;;;;;26.40;7.80;;;;;;;12.15;100.00;101289.28;5038577;56;1142878;-81
2023/05/25 02:50:30;;;;;;;21.10;7.60;;;;;;;12.16;100.00;101287.00;5139914;56;1142929;-80
2023/05/25 02:55:39;;;;;;;17.27;6.63;;;;;;;12.14;100.00;101288.91;5125469;56;1142942;-81
2023/05/25 03:00:45;;;;;;;21.97;6.20;;;;;;;12.13;100.00;101287.22;5125418;56;1142834;-81
2023/05/25 03:05:51;;;;;;;21.07;7.47;;;;;;;12.13;100.00;101289.87;5145556;56;1142942;-81
2023/05/25 03:10:57;;;;;;;16.13;6.70;;;;;;;12.12;100.00;101285.52;5116353;56;1142914;-81
2023/05/25 03:16:03;;;;;;;16.93;7.40;;;;;;;12.09;100.00;101288.86;5078040;56;1143274;-81
2023/05/25 03:21:09;;;;;;;21.83;6.63;;;;;;;12.01;100.00;101293.41;5093285;56;1142841;-79
2023/05/25 03:26:16;;;;;;;19.97;7.03;;;;;;;11.93;100.00;101291.28;5085956;56;1142777;-80
2023/05/25 03:31:22;;;;;;;20.00;7.13;;;;;;;11.88;100.00;101296.08;5085148;56;1143011;-80
2023/05/25 03:36:31;;;;;;;18.42;6.95;;;;;;;11.86;100.00;101305.94;5129783;56;1143252;-80
2023/05/25 03:41:35;;;;;;;17.77;7.07;;;;;;;11.84;100.00;101304.34;5084412;56;1143006;-80
2023/05/25 03:46:41;;;;;;;15.23;7.07;;;;;;;11.83;100.00;101307.95;4993441;57;1143050;-80
2023/05/25 03:51:47;;;;;;;20.83;7.83;;;;;;;11.79;100.00;101307.79;4948972;57;1142907;-80
2023/05/25 03:56:55;;;;;;;16.43;7.03;;;;;;;11.82;100.00;101324.33;4924545;58;1142831;-80
2023/05/25 04:02:01;;;;;;;15.50;6.20;;;;;;;11.82;100.00;101326.13;4841165;58;1142848;-80
2023/05/25 04:07:08;;;;;;;19.90;7.12;;;;;;;11.85;100.00;101328.09;4943270;58;1142919;-80
2023/05/25 04:12:13;;;;;;;15.83;5.73;;;;;;;11.83;100.00;101331.33;5036857;57;1261719;-81
2023/05/25 04:17:23;;;;;;;20.77;6.97;;;;;;;11.85;100.00;101331.23;5023787;56;1142975;-80
2023/05/25 04:22:26;;;;;;;20.37;8.78;;;;;;;11.83;100.00;101332.66;5010020;56;1143108;-79
2023/05/25 04:27:32;;;;;;;18.42;7.35;;;;;;;11.85;100.00;101331.23;5040160;57;1142987;-80
2023/05/25 04:32:38;;;;;;;16.00;6.93;;;;;;;11.82;100.00;101337.58;4912153;55;1143093;-77
2023/05/25 04:37:45;;;;;;;13.47;5.67;;;;;;;11.84;100.00;101336.16;4949983;58;1142908;-76
2023/05/25 04:42:52;;;;;;;16.67;6.40;;;;;;;11.89;100.00;101330.91;4974126;57;1142980;-79
2023/05/25 04:48:00;;;;;;;19.07;8.23;;;;;;;11.94;100.00;101333.22;4977421;56;1142896;-78
2023/05/25 04:53:06;;;;;;;22.73;8.00;;;;;;;12.00;100.00;101331.47;5032394;56;1143059;-78
2023/05/25 04:58:12;;;;;;;13.97;6.03;;;;;;;12.11;100.00;101326.73;5058624;56;1142912;-78
2023/05/25 05:03:17;;;;;;;21.23;6.80;;;;;;;12.24;100.00;101328.87;5031220;56;1143143;-80
2023/05/25 05:08:23;;;;;;;19.50;6.92;;;;;;;12.33;100.00;101329.08;5019273;56;1143472;-77
2023/05/25 05:13:29;;;;;;;24.87;7.60;;;;;;;12.44;100.00;101328.77;5042358;56;1143216;-76
2023/05/25 05:18:35;;;;;;;16.83;6.43;;;;;;;12.57;100.00;101332.22;5032168;56;1142914;-78
2023/05/25 05:23:42;;;;;;;19.40;5.93;;;;;;;12.68;100.00;101331.80;5035930;56;1142892;-76
2023/05/25 05:28:48;;;;;;;16.50;6.20;;;;;;;12.80;100.00;101327.89;5041805;56;1142984;-76
2023/05/25 05:33:55;;;;;;;12.03;5.93;;;;;;;12.90;100.00;101327.09;5031549;56;1143066;-76
2023/05/25 05:39:02;;;;;;;21.90;6.90;;;;;;;13.07;100.00;101332.95;5041104;56;1142880;-78
2023/05/25 05:44:07;;;;;;;16.30;5.93;;;;;;;13.19;100.00;101332.05;5031892;56;1143097;-78
2023/05/25 05:49:13;;;;;;;15.90;5.00;;;;;;;13.34;100.00;101333.55;5038384;56;1143145;-78
2023/05/25 05:54:19;;;;;;;19.07;5.40;;;;;;;13.50;100.00;101331.41;5033571;56;1143200;-77
2023/05/25 05:59:25;;;;;;;19.65;6.28;;;;;;;13.72;100.00;101334.59;5026579;56;1142978;-79
2023/05/25 06:04:31;;;;;;;15.30;4.17;;;;;;;13.92;100.00;101336.52;5048708;56;1142884;-78
2023/05/25 06:09:37;;;;;;;17.37;6.83;;;;;;;14.09;100.00;101341.84;5023537;56;1142963;-78
2023/05/25 06:14:42;;;;;;;14.33;4.73;;;;;;;14.16;100.00;101349.72;5018695;56;1142964;-78
2023/05/25 06:19:50;;;;;;;13.07;4.73;;;;;;;14.30;100.00;101350.80;5037952;56;1143130;-77
2023/05/25 06:24:56;;;;;;;17.00;4.80;;;;;;;14.43;100.00;101356.00;5018502;56;1142947;-78
2023/05/25 06:30:01;;;;;;;15.47;4.77;;;;;;;14.55;100.00;101359.48;5018975;56;1143139;-78
2023/05/25 06:35:08;;;;;;;12.37;5.30;;;;;;;14.75;100.00;101354.73;5020884;56;1143066;-78
2023/05/25 06:40:15;;;;;;;16.47;5.57;;;;;;;14.99;100.00;101359.84;5045438;56;1143320;-78
2023/05/25 06:45:21;;;;;;;16.13;5.17;;;;;;;15.03;100.00;101363.47;5034762;56;1142861;-78
2023/05/25 06:50:26;;;;;;;14.93;4.27;;;;;;;15.15;100.00;101358.92;5038149;56;1142977;-77
2023/05/25 06:55:32;;;;;;;19.05;5.62;;;;;;;15.24;100.00;101362.17;5054014;56;1142966;-78
2023/05/25 07:00:37;;;;;;;11.53;5.53;;;;;;;15.41;100.00;101358.09;5033148;56;1143091;-77
2023/05/25 07:05:43;;;;;;;9.23;4.53;;;;;;;15.49;100.00;101366.27;5036688;56;1142962;-79
2023/05/25 07:10:49;;;;;;;16.53;5.43;;;;;;;15.75;100.00;101366.74;5063158;56;1140925;-79
2023/05/25 07:15:55;;;;;;;13.50;5.80;;;;;;;15.96;100.00;101362.72;5038047;56;1143032;-79
2023/05/25 07:21:00;;;;;;;14.07;5.67;;;;;;;16.08;100.00;101365.16;5067787;56;1142945;-79
2023/05/25 07:26:06;;;;;;;10.83;5.40;;;;;;;16.16;100.00;101364.51;5028690;56;1142941;-78
2023/05/25 07:31:11;;;;;;;12.63;5.43;;;;;;;16.34;100.00;101362.89;5061869;56;1142978;-78
2023/05/25 07:36:19;;;;;;;10.45;5.00;;;;;;;16.53;100.00;101374.94;5081038;56;1152548;-78
2023/05/25 07:41:25;;;;;;;11.70;4.42;;;;;;;16.60;100.00;101377.08;5029794;56;1142953;-79
2023/05/25 07:46:31;;;;;;;14.50;5.28;;;;;;;16.70;100.00;101374.80;5072034;56;1142994;-78
2023/05/25 07:51:37;;;;;;;9.25;4.80;;;;;;;16.82;100.00;101376.86;5037009;56;1143018;-78
2023/05/25 07:56:42;;;;;;;8.00;4.13;;;;;;;16.94;100.00;101381.61;5007366;56;1140864;-78
2023/05/25 08:01:48;;;;;;;15.87;5.37;;;;;;;17.16;100.00;101374.64;4963640;56;1140976;-78
2023/05/25 08:06:53;;;;;;;8.00;3.87;;;;;;;17.30;100.00;101378.22;4958332;56;1143045;-79
2023/05/25 08:12:00;;;;;;;4.63;3.20;;;;;;;17.56;100.00;101379.34;4978441;56;1140815;-78
2023/05/25 08:17:06;;;;;;;7.50;2.83;;;;;;;17.80;100.00;101384.73;4988912;56;1142530;-79
2023/05/25 08:22:11;;;;;;;11.53;3.60;;;;;;;18.11;100.00;101386.69;5034645;56;1141014;-79
2023/05/25 08:27:17;;;;;;;11.83;3.20;;;;;;;18.12;100.00;101386.55;5005792;56;1142808;-79
2023/05/25 08:32:23;;;;;;;9.10;3.43;;;;;;;18.19;100.00;101372.05;5017707;56;1142863;-78
2023/05/25 08:37:29;;;;;;;9.83;3.60;;;;;;;18.18;100.00;101370.40;4997346;56;1141028;-78
2023/05/25 08:42:35;;;;;;;6.42;3.70;;;;;;;18.27;100.00;101375.70;4997180;56;1140926;-78
2023/05/25 08:47:44;;;;;;;8.50;3.67;;;;;;;18.50;100.00;101380.15;4994504;56;1140712;-79
2023/05/25 08:52:52;;;;;;;6.32;2.96;;;;;;;18.77;100.00;101385.20;5003850;56;1141135;-78
2023/05/25 08:58:17;;;;;;;19.52;3.42;;;;;;;18.89;100.00;101376.78;4979319;57;1140643;-78
2023/05/25 09:03:24;;;;;;;5.97;2.72;;;;;;;19.02;100.00;101385.78;5004642;56;1142828;-79
2023/05/25 09:08:30;;;;;;;6.03;2.95;;;;;;;19.17;100.00;101380.23;5033941;56;1140953;-78
2023/05/25 09:13:36;;;;;;;9.18;3.42;;;;;;;19.46;100.00;101387.18;4992576;56;1141010;-75
2023/05/25 09:18:42;;;;;;;7.87;3.15;;;;;;;19.42;100.00;101387.14;5030469;56;1140876;-74
2023/05/25 09:23:49;;;;;;;9.80;3.45;;;;;;;19.49;100.00;101397.61;5059388;56;1140922;-80
2023/05/25 09:28:54;;;;;;;6.03;2.83;;;;;;;19.72;100.00;101382.70;5031803;56;1140972;-79
2023/05/25 09:34:00;;;;;;;5.62;2.77;;;;;;;19.84;100.00;101386.84;4985093;56;1140954;-80
2023/05/25 09:39:10;;;;;;;6.03;3.83;;;;;;;19.81;100.00;101389.83;5030698;56;1140795;-75
2023/05/25 09:44:15;;;;;;;10.50;3.60;;;;;;;19.57;100.00;101380.25;5064413;56;1140944;-79
2023/05/25 09:49:21;;;;;;;7.92;3.62;;;;;;;19.68;100.00;101383.20;5031298;56;1143065;-79
2023/05/25 09:54:27;;;;;;;9.53;3.80;;;;;;;19.81;100.00;101383.13;5036429;56;1141095;-79
2023/05/25 09:59:33;;;;;;;6.58;4.30;;;;;;;19.68;100.00;101389.41;5032743;56;1140923;-82
2023/05/25 10:04:40;;;;;;;9.25;3.70;;;;;;;19.63;100.00;101387.69;5011671;56;1140901;-77
2023/05/25 10:09:47;;;;;;;11.15;4.10;;;;;;;19.59;100.00;101397.88;5018525;56;1141196;-81
2023/05/25 10:14:55;;;;;;;6.95;3.90;;;;;;;19.53;100.00;101405.23;5006007;56;1143120;-81
2023/05/25 10:20:06;;;;;;;15.60;4.10;;;;;;;19.40;100.00;101400.70;5013510;56;1140728;-76
2023/05/25 10:25:19;;;;;;;4.75;3.60;;;;;;;19.27;100.00;101413.17;5045642;56;1142938;-80
2023/05/25 10:30:27;;;;;;;7.05;3.90;;;;;;;19.18;100.00;101413.26;5094085;56;1141174;-78
2023/05/25 10:35:34;;;;;;;9.43;4.35;;;;;;;19.11;100.00;101407.65;5088550;56;1141041;-81
2023/05/25 10:40:40;;;;;;;8.83;4.43;;;;;;;19.27;100.00;101415.85;5076321;56;1140887;-76
2023/05/25 10:45:45;;;;;;;7.15;3.90;;;;;;;19.46;100.00;101417.53;5108459;56;1141145;-80
2023/05/25 10:50:52;;;;;;;8.95;3.95;;;;;;;19.44;100.00;101418.69;5061104;56;1140847;-77
2023/05/25 10:56:09;;;;;;;5.87;3.83;;;;;;;19.29;100.00;101415.20;5097120;56;1141079;-75
2023/05/25 11:01:16;;;;;;;4.97;3.80;;;;;;;19.23;100.00;101413.16;5091826;56;1140982;-78
2023/05/25 11:06:25;;;;;;;4.80;3.47;;;;;;;19.20;100.00;101415.30;5062962;56;1140932;-80
2023/05/25 11:11:51;;;;;;;6.70;4.50;;;;;;;19.56;100.00;101406.73;5072287;56;1147678;-77
2023/05/25 11:17:20;;;;;;;4.33;3.87;;;;;;;19.92;100.00;101403.48;5125965;56;1140895;-78
2023/05/25 11:22:35;;;;;;;6.80;3.95;;;;;;;20.13;100.00;101405.30;5061748;56;1141001;-78
2023/05/25 11:27:46;;;;;;;5.95;4.37;;;;;;;20.02;100.00;101404.20;5140264;56;1141140;-81
2023/05/25 11:32:53;;;;;;;9.67;3.77;;;;;;;20.12;100.00;101399.59;5115728;56;1140989;-78
2023/05/25 11:38:00;;;;;;;10.93;4.62;;;;;;;20.15;100.00;101400.62;5071694;56;1140999;-82
2023/05/25 11:43:06;;;;;;;5.37;3.63;;;;;;;20.35;100.00;101389.11;5062335;56;1143024;-80
2023/05/25 11:48:14;;;;;;;13.10;4.62;;;;;;;20.62;100.00;101378.69;5135818;56;1140737;-82
2023/05/25 11:53:20;;;;;;;8.60;3.35;;;;;;;20.89;100.00;101373.53;5120507;56;1143034;-78
2023/05/25 11:58:26;;;;;;;4.53;3.65;;;;;;;20.91;96.64;101384.97;5121223;56;1140840;-78
2023/05/25 12:03:32;;;;;;;4.05;3.60;;;;;;;20.91;97.83;101375.06;5141404;56;1138925;-83
2023/05/25 12:08:38;;;;;;;10.45;3.47;;;;;;;21.23;99.10;101376.14;5125622;56;1138809;-78
2023/05/25 12:13:44;;;;;;;4.83;3.20;;;;;;;21.21;81.90;101376.30;5044615;57;1140898;-79
2023/05/25 12:18:50;;;;;;;7.33;3.60;;;;;;;21.34;80.64;101364.53;5150577;56;1138717;-79
2023/05/25 12:23:56;;;;;;;5.97;3.25;;;;;;;21.62;80.21;101360.97;5130676;56;1138730;-83
2023/05/25 12:29:09;;;;;;;8.63;4.33;;;;;;;21.65;73.03;101349.03;5117731;56;1138721;-80
2023/05/25 12:34:17;;;;;;;7.60;3.50;;;;;;;21.48;76.14;101358.13;5069052;56;1138904;-81
2023/05/25 12:39:37;;;;;;;6.47;2.98;;;;;;;21.73;79.20;101350.34;5137571;56;1138898;-80
2023/05/25 12:44:43;;;;;;;9.10;4.10;;;;;;;22.02;75.33;101345.75;5116962;56;1138891;-79
2023/05/25 12:49:55;;;;;;;4.90;3.50;;;;;;;22.17;75.46;101344.52;5114420;56;1138914;-80
2023/05/25 12:55:26;;;;;;;4.85;3.65;;;;;;;22.12;71.04;101339.67;5118987;56;1138919;-80
2023/05/25 13:00:38;;;;;;;5.83;3.45;;;;;;;22.37;73.44;101342.59;5079759;56;1138724;-79
2023/05/25 13:05:45;;;;;;;6.10;3.42;;;;;;;22.47;73.30;101338.31;5030240;56;1138908;-81
2023/05/25 13:10:51;;;;;;;5.65;3.08;;;;;;;22.73;74.62;101333.47;5103890;56;1139219;-84
2023/05/25 13:15:57;;;;;;;8.90;4.15;;;;;;;22.91;69.87;101330.52;5038529;57;1138961;-82
2023/05/25 13:21:02;;;;;;;4.55;3.15;;;;;;;22.84;67.37;101328.19;5064402;56;1266564;-81
2023/05/25 13:26:08;;;;;;;4.72;3.37;;;;;;;22.64;68.30;101322.89;5029263;57;1139012;-78
2023/05/25 13:31:13;;;;;;;5.60;3.33;;;;;;;22.78;67.63;101318.95;5120340;56;1138782;-77
2023/05/25 13:36:19;;;;;;;8.85;3.92;;;;;;;22.74;66.50;101323.02;5114488;56;1138802;-78
2023/05/25 13:41:25;;;;;;;4.30;2.90;;;;;;;22.73;66.59;101325.37;5087262;56;1138729;-76
2023/05/25 13:46:31;;;;;;;5.37;2.50;;;;;;;22.75;65.29;101313.06;5059573;56;1138920;-78
2023/05/25 13:51:37;;;;;;;6.33;2.87;;;;;;;22.82;62.48;101307.30;5115203;56;1138927;-78
2023/05/25 13:56:43;;;;;;;5.83;2.80;;;;;;;22.85;61.95;101311.50;5115246;55;1138992;-79
2023/05/25 14:01:48;;;;;;;6.22;3.37;;;;;;;22.83;61.53;101299.54;5135157;56;1138723;-80
2023/05/25 14:06:55;;;;;;;2.75;2.52;;;;;;;22.84;59.78;101306.61;5061027;56;1139036;-75
2023/05/25 14:12:01;;;;;;;6.95;2.92;;;;;;;22.95;62.24;101292.70;5114270;56;1138950;-75
2023/05/25 14:17:07;;;;;;;4.77;2.93;;;;;;;23.12;62.75;101287.49;5113383;56;1138802;-79
2023/05/25 14:22:13;;;;;;;7.08;2.25;;;;;;;23.31;62.34;101282.09;5125655;56;1138764;-75
2023/05/25 14:27:20;;;;;;;4.47;2.20;;;;;;;23.32;59.19;101278.38;5090978;56;1138800;-78
2023/05/25 14:32:26;;;;;;;6.86;2.82;;;;;;;23.12;56.43;101276.70;5089905;56;1138767;-71
2023/05/25 14:37:31;;;;;;;5.50;2.50;;;;;;;23.00;56.92;101276.81;5110263;56;1138814;-79
2023/05/25 14:42:37;;;;;;;4.50;2.60;;;;;;;23.03;58.57;101275.11;5087027;56;1138733;-72
2023/05/25 14:47:42;;;;;;;7.20;2.40;;;;;;;23.20;57.33;101274.45;5086913;56;1138744;-76
2023/05/25 14:52:48;;;;;;;6.50;2.45;;;;;;;23.24;56.06;101273.04;5136105;56;1138773;-79
2023/05/25 14:57:53;;;;;;;7.03;2.77;;;;;;;23.26;57.36;101266.11;5108141;56;1138897;-82
2023/05/25 15:02:59;;;;;;;3.75;2.30;;;;;;;23.24;56.21;101260.90;5108400;56;1138883;-79
2023/05/25 15:08:05;;;;;;;4.20;2.37;;;;;;;23.27;56.39;101265.09;5094337;56;1138900;-80
2023/05/25 15:13:10;;;;;;;7.92;2.30;;;;;;;23.26;56.44;101252.62;5102099;56;1138714;-80
2023/05/25 15:18:16;;;;;;;5.12;2.47;;;;;;;23.27;55.81;101255.65;5087847;56;1138841;-81
2023/05/25 15:23:21;;;;;;;8.63;2.40;;;;;;;23.25;55.74;101254.48;5102462;56;1138693;-82
2023/05/25 15:28:27;;;;;;;7.15;2.55;;;;;;;23.26;56.34;101257.51;5094386;56;1138803;-81
2023/05/25 15:33:33;;;;;;;4.03;2.25;;;;;;;23.32;54.64;101255.44;5124922;56;1138975;-76
2023/05/25 15:38:41;;;;;;;3.57;2.23;;;;;;;23.22;54.58;101259.43;5085629;56;1138884;-78
2023/05/25 15:43:56;;;;;;;4.55;2.67;;;;;;;23.13;53.60;101251.91;5109656;56;1138810;-80
2023/05/25 15:49:01;;;;;;;15.93;8.63;;;;;;;23.05;53.95;101256.04;5064327;56;1138855;-80
2023/05/25 15:54:07;;;;;;;5.87;2.37;;;;;;;23.03;54.72;101254.88;5061130;56;1140832;-75
2023/05/25 15:59:13;;;;;;;4.80;2.72;;;;;;;23.04;54.69;101251.16;5106283;56;1138968;-76
2023/05/25 16:04:19;;;;;;;3.17;2.37;;;;;;;23.02;53.95;101250.49;5138603;56;1139021;-86
2023/05/25 16:09:24;;;;;;;6.33;2.25;;;;;;;22.97;53.79;101252.89;5096543;56;1138833;-81
2023/05/25 16:14:30;;;;;;;4.50;3.02;;;;;;;22.88;54.40;101241.85;5045785;56;1138960;-82
2023/05/25 16:19:35;;;;;;;5.83;2.33;;;;;;;22.87;54.96;101246.08;5101335;56;1138858;-80
2023/05/25 16:24:41;;;;;;;4.10;2.23;;;;;;;22.85;54.35;101244.06;5123871;56;1138745;-80
2023/05/25 16:29:47;;;;;;;6.65;3.62;;;;;;;22.97;54.89;101248.00;5087152;56;1138683;-80
2023/05/25 16:34:52;;;;;;;4.80;2.80;;;;;;;23.10;55.55;101242.81;5069889;55;1138845;-79
2023/05/25 16:39:58;;;;;;;16.32;3.08;;;;;;;23.14;55.84;101243.63;5121375;56;1138791;-76
2023/05/25 16:45:04;;;;;;;3.95;2.75;;;;;;;23.24;54.77;101245.21;5121146;56;1140934;-75
2023/05/25 16:50:09;;;;;;;4.83;3.17;;;;;;;23.15;54.23;101244.47;5121706;56;1138954;-74
2023/05/25 16:55:15;;;;;;;7.37;3.47;;;;;;;23.01;54.82;101248.81;5141496;56;1138790;-76
2023/05/25 17:00:21;;;;;;;5.50;2.52;;;;;;;22.69;55.44;101251.74;5121836;56;1138924;-77
2023/05/25 17:05:26;;;;;;;4.92;2.80;;;;;;;22.53;56.70;101250.00;5128715;56;1138729;-77
2023/05/25 17:10:32;;;;;;;5.28;2.85;;;;;;;22.35;57.90;101244.89;5108775;56;1138900;-78
2023/05/25 17:15:38;;;;;;;7.60;4.00;;;;;;;22.41;58.90;101246.88;5001294;57;1138990;-76
2023/05/25 17:20:43;;;;;;;6.67;3.00;;;;;;;22.42;58.94;101251.27;5017940;56;1138843;-75
2023/05/25 17:25:49;;;;;;;4.37;2.98;;;;;;;22.40;59.43;101243.02;5020491;57;1138790;-79
2023/05/25 17:30:57;;;;;;;5.90;2.98;;;;;;;22.31;58.17;101250.30;5006907;57;1138670;-77
2023/05/25 17:36:02;;;;;;;8.63;3.12;;;;;;;22.17;57.42;101247.01;5004254;57;1138760;-80
2023/05/25 17:41:08;;;;;;;5.53;2.40;;;;;;;22.00;57.84;101245.41;4995348;57;1138884;-77
2023/05/25 17:46:14;;;;;;;7.60;3.35;;;;;;;21.82;58.77;101260.46;5052063;57;1138725;-81
2023/05/25 17:51:21;;;;;;;12.95;3.45;;;;;;;21.63;59.65;101250.92;4995269;57;1138927;-83
2023/05/25 17:56:27;;;;;;;8.38;3.65;;;;;;;21.56;60.79;101250.42;5001450;57;1140940;-79
2023/05/25 18:01:33;;;;;;;8.35;4.00;;;;;;;21.53;61.09;101257.53;5025677;57;1138875;-73
2023/05/25 18:06:39;;;;;;;25.85;12.80;;;;;;;21.48;61.69;101256.69;5005777;56;1138829;-79
2023/05/25 18:11:45;;;;;;;21.33;14.83;;;;;;;21.45;62.39;101265.61;5004527;56;1143018;-77
2023/05/25 18:16:51;;;;;;;16.37;10.72;;;;;;;21.30;63.02;101267.65;5021564;56;1143030;-76
2023/05/25 18:21:56;;;;;;;9.50;7.10;;;;;;;21.20;63.64;101264.81;5006528;56;1143257;-78
2023/05/25 18:27:03;;;;;;;16.27;6.08;;;;;;;21.07;64.62;101277.41;4991067;56;1138863;-81
2023/05/25 18:32:09;;;;;;;12.00;6.30;;;;;;;20.96;65.11;101280.41;5018291;57;1141100;-80
2023/05/25 18:37:15;;;;;;;489.10;420.42;;;;;;;20.91;66.04;101296.23;5109378;56;1140925;-81
2023/05/25 18:42:21;;;;;;;68.47;52.95;;;;;;;20.73;66.66;101299.56;5113955;56;1147255;-84
2023/05/25 18:47:27;;;;;;;22.17;15.28;;;;;;;20.62;67.77;101299.39;5114512;56;1142929;-79
2023/05/25 18:52:32;;;;;;;38.78;17.10;;;;;;;20.57;68.80;101307.94;5134682;56;1142949;-82
2023/05/25 18:57:38;;;;;;;76.47;31.62;;;;;;;20.53;69.62;101311.95;5114529;56;1143027;-83
2023/05/25 19:02:44;;;;;;;15.40;8.00;;;;;;;20.39;70.65;101332.73;5114383;56;1143086;-75
2023/05/25 19:07:49;;;;;;;21.95;6.22;;;;;;;20.34;71.53;101330.50;5134532;56;1140866;-72
2023/05/25 19:12:55;;;;;;;11.63;4.30;;;;;;;20.31;72.47;101332.70;5116731;56;1141063;-78
2023/05/25 19:18:06;;;;;;;12.05;4.90;;;;;;;20.26;73.34;101344.42;5082847;56;1140876;-73
2023/05/25 19:23:08;;;;;;;13.05;4.92;;;;;;;20.13;73.71;101341.34;5030805;56;1140903;-77
2023/05/25 19:28:14;;;;;;;10.23;3.92;;;;;;;20.07;74.34;101350.03;5093249;56;1140885;-80
2023/05/25 19:33:20;;;;;;;4.70;3.70;;;;;;;19.98;74.37;101363.42;5028771;56;1140984;-75
2023/05/25 19:38:26;;;;;;;10.05;4.50;;;;;;;19.97;75.05;101359.05;5077702;56;1138882;-76
2023/05/25 19:43:32;;;;;;;10.13;4.25;;;;;;;19.93;75.03;101358.19;5113320;56;1140940;-79
2023/05/25 19:48:42;;;;;;;9.40;4.50;;;;;;;19.86;75.01;101357.16;5076873;56;1140898;-74
2023/05/25 19:53:50;;;;;;;11.40;4.97;;;;;;;19.79;74.98;101365.48;5043722;56;1138731;-81
2023/05/25 19:58:56;;;;;;;12.47;5.40;;;;;;;19.75;75.23;101366.79;5024792;56;1140982;-74
2023/05/25 20:04:02;;;;;;;16.30;5.58;;;;;;;19.73;75.36;101370.97;5024267;56;1140977;-78
2023/05/25 20:09:11;;;;;;;10.55;5.25;;;;;;;19.69;75.17;101371.47;5041570;56;1141012;-79
2023/05/25 20:14:14;;;;;;;10.23;5.10;;;;;;;19.58;74.77;101375.22;5100595;56;1140875;-80
2023/05/25 20:19:20;;;;;;;12.18;4.92;;;;;;;19.49;75.19;101380.16;5068688;56;1141020;-81
2023/05/25 20:24:26;;;;;;;12.75;4.25;;;;;;;19.49;75.51;101390.90;4927396;57;1141043;-75
2023/05/25 20:29:33;;;;;;;8.96;4.46;;;;;;;19.45;75.32;101398.91;5043280;57;1140952;-81
2023/05/25 20:34:39;;;;;;;7.70;4.05;;;;;;;19.37;75.66;101397.52;4995692;55;1138883;-81
2023/05/25 20:39:44;;;;;;;9.00;4.58;;;;;;;19.28;75.24;101411.33;4974662;57;1138846;-79
2023/05/25 20:44:54;;;;;;;7.20;3.85;;;;;;;19.06;75.16;101410.46;4982322;57;1139031;-84
2023/05/25 20:50:00;;;;;;;7.82;4.20;;;;;;;18.77;75.23;101418.20;5044626;56;1138767;-78
2023/05/25 20:55:07;;;;;;;12.33;4.58;;;;;;;18.58;75.65;101417.80;5011593;56;1138794;-78
2023/05/25 21:00:15;;;;;;;9.77;5.13;;;;;;;18.51;76.34;101418.50;4971502;56;1140860;-77
2023/05/25 21:05:21;;;;;;;15.98;8.83;;;;;;;18.47;76.55;101414.45;5047162;56;1138882;-79
2023/05/25 21:10:26;;;;;;;28.27;14.30;;;;;;;18.43;76.34;101420.59;4983358;57;1140954;-79
2023/05/25 21:15:32;;;;;;;24.80;10.53;;;;;;;18.28;76.21;101424.75;4948246;57;1143037;-75
2023/05/25 21:20:38;;;;;;;20.72;8.43;;;;;;;18.15;76.87;101422.41;5039251;55;1142975;-78
2023/05/25 21:25:44;;;;;;;14.75;8.05;;;;;;;18.07;77.37;101424.95;5061561;57;1140819;-79
2023/05/25 21:30:49;;;;;;;15.27;6.10;;;;;;;18.03;77.96;101426.71;5053402;57;1141034;-81
2023/05/25 21:35:55;;;;;;;21.90;5.78;;;;;;;17.90;77.68;101426.53;5031718;56;1140895;-78
2023/05/25 21:41:00;;;;;;;12.95;5.83;;;;;;;17.73;78.14;101423.25;5024025;57;1141085;-82
2023/05/25 21:46:06;;;;;;;13.04;5.42;;;;;;;17.70;79.02;101436.09;5007973;57;1140824;-74
2023/05/25 21:51:11;;;;;;;16.57;5.62;;;;;;;17.68;79.06;101443.42;5056247;57;1140787;-76
2023/05/25 21:56:17;;;;;;;10.15;4.85;;;;;;;17.57;79.10;101439.01;5061492;57;1140786;-77
2023/05/25 22:01:24;;;;;;;11.83;4.67;;;;;;;17.50;79.30;101452.61;5061464;57;1140936;-78
2023/05/25 22:06:31;;;;;;;11.08;5.03;;;;;;;17.29;79.26;101447.88;5081293;57;1140959;-82
2023/05/25 22:11:37;;;;;;;12.10;4.17;;;;;;;17.12;79.96;101459.61;5008132;57;1140879;-80
2023/05/25 22:16:42;;;;;;;9.57;4.43;;;;;;;16.93;80.50;101459.59;5016794;57;1140864;-79
2023/05/25 22:21:48;;;;;;;8.25;4.62;;;;;;;16.67;81.10;101463.22;5041642;56;1138904;-80
2023/05/25 22:26:54;;;;;;;12.03;4.87;;;;;;;16.41;81.93;101468.64;4979127;57;1138753;-80
2023/05/25 22:32:00;;;;;;;14.87;4.47;;;;;;;16.21;82.48;101465.02;4993123;56;1140748;-80
2023/05/25 22:37:05;;;;;;;14.33;4.57;;;;;;;16.08;83.05;101466.57;4979197;56;1140949;-83
2023/05/25 22:42:11;;;;;;;10.90;4.40;;;;;;;16.05;83.29;101463.31;4998770;56;1140910;-76
2023/05/25 22:47:17;;;;;;;10.63;4.33;;;;;;;15.92;83.62;101462.18;4979030;57;1140934;-79
2023/05/25 22:52:22;;;;;;;9.57;3.67;;;;;;;15.87;83.89;101466.23;4993202;56;1141008;-77
2023/05/25 22:57:28;;;;;;;17.43;5.23;;;;;;;15.81;84.11;101469.77;5041940;56;1139123;-81